sensor_id;sensor_type;location;lat;lon;timestamp;pressure;altitude;pressure_sealevel;temperature
74043;BMP280;62384;53.600;10.040;2023-04-01T00:01:57;53964.06;;;11.26
74043;BMP280;62384;53.600;10.040;2023-04-01T00:04:22;53924.53;;;11.33
74043;BMP280;62384;53.600;10.040;2023-04-01T00:06:48;54114.53;;;11.33
74043;BMP280;62384;53.600;10.040;2023-04-01T00:09:13;54052.94;;;11.32
74043;BMP280;62384;53.600;10.040;2023-04-01T00:11:39;53808.06;;;11.26
74043;BMP280;62384;53.600;10.040;2023-04-01T00:14:05;53566.28;;;11.21
74043;BMP280;62384;53.600;10.040;2023-04-01T00:16:32;53617.41;;;11.33
74043;BMP280;62384;53.600;10.040;2023-04-01T00:19:05;53753.72;;;11.28
74043;BMP280;62384;53.600;10.040;2023-04-01T00:21:31;53896.91;;;11.32
74043;BMP280;62384;53.600;10.040;2023-04-01T00:23:56;53967.41;;;11.24
74043;BMP280;62384;53.600;10.040;2023-04-01T00:26:22;53839.75;;;11.23
74043;BMP280;62384;53.600;10.040;2023-04-01T00:28:48;53593.50;;;11.22
74043;BMP280;62384;53.600;10.040;2023-04-01T00:31:14;53652.75;;;11.20
74043;BMP280;62384;53.600;10.040;2023-04-01T00:33:41;53476.81;;;11.22
74043;BMP280;62384;53.600;10.040;2023-04-01T00:36:11;53591.47;;;11.13
74043;BMP280;62384;53.600;10.040;2023-04-01T00:38:37;53388.66;;;11.07
74043;BMP280;62384;53.600;10.040;2023-04-01T00:41:03;53373.97;;;11.08
74043;BMP280;62384;53.600;10.040;2023-04-01T00:43:28;53306.81;;;11.14
74043;BMP280;62384;53.600;10.040;2023-04-01T00:45:53;53118.75;;;11.10
74043;BMP280;62384;53.600;10.040;2023-04-01T00:48:19;53208.22;;;11.09
74043;BMP280;62384;53.600;10.040;2023-04-01T00:50:54;53118.22;;;10.85
74043;BMP280;62384;53.600;10.040;2023-04-01T00:53:22;53016.81;;;11.01
74043;BMP280;62384;53.600;10.040;2023-04-01T00:56:25;53115.34;;;11.05
74043;BMP280;62384;53.600;10.040;2023-04-01T00:58:47;53121.38;;;11.06
74043;BMP280;62384;53.600;10.040;2023-04-01T01:01:13;53089.28;;;11.06
74043;BMP280;62384;53.600;10.040;2023-04-01T01:03:38;52924.34;;;11.04
74043;BMP280;62384;53.600;10.040;2023-04-01T01:08:58;53123.25;;;11.05
74043;BMP280;62384;53.600;10.040;2023-04-01T01:11:42;52974.16;;;11.00
74043;BMP280;62384;53.600;10.040;2023-04-01T01:16:54;52864.69;;;10.99
74043;BMP280;62384;53.600;10.040;2023-04-01T01:19:33;52773.75;;;11.01
74043;BMP280;62384;53.600;10.040;2023-04-01T01:27:20;52766.56;;;10.95
74043;BMP280;62384;53.600;10.040;2023-04-01T01:35:56;52657.88;;;10.94
74043;BMP280;62384;53.600;10.040;2023-04-01T01:38:26;52741.66;;;10.97
74043;BMP280;62384;53.600;10.040;2023-04-01T01:40:53;52804.31;;;11.03
74043;BMP280;62384;53.600;10.040;2023-04-01T01:43:24;52812.97;;;10.97
74043;BMP280;62384;53.600;10.040;2023-04-01T01:45:55;52688.44;;;10.93
74043;BMP280;62384;53.600;10.040;2023-04-01T01:48:24;52950.78;;;11.08
74043;BMP280;62384;53.600;10.040;2023-04-01T01:50:50;53013.44;;;11.07
74043;BMP280;62384;53.600;10.040;2023-04-01T01:53:16;53035.28;;;11.01
74043;BMP280;62384;53.600;10.040;2023-04-01T01:55:44;52873.38;;;11.00
74043;BMP280;62384;53.600;10.040;2023-04-01T01:58:20;52828.47;;;11.03
74043;BMP280;62384;53.600;10.040;2023-04-01T02:00:50;52975.66;;;10.99
74043;BMP280;62384;53.600;10.040;2023-04-01T02:03:20;52830.34;;;11.02
74043;BMP280;62384;53.600;10.040;2023-04-01T02:05:47;53071.13;;;10.99
74043;BMP280;62384;53.600;10.040;2023-04-01T02:08:20;52877.88;;;10.92
74043;BMP280;62384;53.600;10.040;2023-04-01T02:10:58;52953.00;;;11.00
74043;BMP280;62384;53.600;10.040;2023-04-01T02:13:30;53022.81;;;10.98
74043;BMP280;62384;53.600;10.040;2023-04-01T02:16:00;52960.50;;;10.89
74043;BMP280;62384;53.600;10.040;2023-04-01T02:18:28;52949.97;;;10.96
74043;BMP280;62384;53.600;10.040;2023-04-01T02:20:56;52878.63;;;10.93
74043;BMP280;62384;53.600;10.040;2023-04-01T02:23:22;52889.59;;;10.97
74043;BMP280;62384;53.600;10.040;2023-04-01T02:25:50;52856.75;;;10.92
74043;BMP280;62384;53.600;10.040;2023-04-01T02:28:17;52915.25;;;10.96
74043;BMP280;62384;53.600;10.040;2023-04-01T02:30:47;52859.41;;;10.92
74043;BMP280;62384;53.600;10.040;2023-04-01T02:33:13;52888.78;;;10.74
74043;BMP280;62384;53.600;10.040;2023-04-01T02:35:38;52865.03;;;10.96
74043;BMP280;62384;53.600;10.040;2023-04-01T02:38:04;52822.78;;;10.92
74043;BMP280;62384;53.600;10.040;2023-04-01T02:40:41;52797.09;;;10.83
74043;BMP280;62384;53.600;10.040;2023-04-01T02:43:06;52687.31;;;10.91
74043;BMP280;62384;53.600;10.040;2023-04-01T02:45:31;52728.81;;;10.94
74043;BMP280;62384;53.600;10.040;2023-04-01T02:47:56;52824.69;;;10.98
74043;BMP280;62384;53.600;10.040;2023-04-01T02:50:22;52717.50;;;10.93
74043;BMP280;62384;53.600;10.040;2023-04-01T02:52:47;52579.81;;;10.85
74043;BMP280;62384;53.600;10.040;2023-04-01T02:55:12;52530.00;;;10.86
74043;BMP280;62384;53.600;10.040;2023-04-01T02:57:38;52557.91;;;10.84
74043;BMP280;62384;53.600;10.040;2023-04-01T03:00:03;52487.75;;;10.86
74043;BMP280;62384;53.600;10.040;2023-04-01T03:02:29;52602.81;;;10.88
74043;BMP280;62384;53.600;10.040;2023-04-01T03:04:54;52561.69;;;10.86
74043;BMP280;62384;53.600;10.040;2023-04-01T03:07:19;52556.41;;;10.86
74043;BMP280;62384;53.600;10.040;2023-04-01T03:09:45;52671.84;;;10.88
74043;BMP280;62384;53.600;10.040;2023-04-01T03:12:10;52712.22;;;10.86
74043;BMP280;62384;53.600;10.040;2023-04-01T03:14:36;52651.47;;;10.82
74043;BMP280;62384;53.600;10.040;2023-04-01T03:17:01;52625.44;;;10.79
74043;BMP280;62384;53.600;10.040;2023-04-01T03:19:26;52491.53;;;10.76
74043;BMP280;62384;53.600;10.040;2023-04-01T03:21:51;52598.66;;;10.78
74043;BMP280;62384;53.600;10.040;2023-04-01T03:24:17;52553.41;;;10.74
74043;BMP280;62384;53.600;10.040;2023-04-01T03:26:42;52511.16;;;10.71
74043;BMP280;62384;53.600;10.040;2023-04-01T03:29:07;52447.03;;;10.73
74043;BMP280;62384;53.600;10.040;2023-04-01T03:31:32;52548.50;;;10.78
74043;BMP280;62384;53.600;10.040;2023-04-01T03:33:58;52606.22;;;10.78
74043;BMP280;62384;53.600;10.040;2023-04-01T03:36:23;52551.16;;;10.75
74043;BMP280;62384;53.600;10.040;2023-04-01T03:38:49;52519.47;;;10.71
74043;BMP280;62384;53.600;10.040;2023-04-01T03:41:15;52518.31;;;10.73
74043;BMP280;62384;53.600;10.040;2023-04-01T03:43:41;52415.75;;;10.70
74043;BMP280;62384;53.600;10.040;2023-04-01T03:46:07;52456.50;;;10.65
74043;BMP280;62384;53.600;10.040;2023-04-01T03:48:32;52373.91;;;10.64
74043;BMP280;62384;53.600;10.040;2023-04-01T03:50:57;52385.22;;;10.68
74043;BMP280;62384;53.600;10.040;2023-04-01T03:53:22;52457.25;;;10.66
74043;BMP280;62384;53.600;10.040;2023-04-01T03:55:48;52499.47;;;10.76
74043;BMP280;62384;53.600;10.040;2023-04-01T03:58:14;52570.03;;;10.68
74043;BMP280;62384;53.600;10.040;2023-04-01T04:00:39;52539.44;;;10.73
74043;BMP280;62384;53.600;10.040;2023-04-01T04:03:05;52514.97;;;10.69
74043;BMP280;62384;53.600;10.040;2023-04-01T04:05:31;52366.00;;;10.64
74043;BMP280;62384;53.600;10.040;2023-04-01T04:07:56;52611.88;;;10.71
74043;BMP280;62384;53.600;10.040;2023-04-01T04:10:21;52477.63;;;10.68
74043;BMP280;62384;53.600;10.040;2023-04-01T04:12:49;52449.72;;;10.63
74043;BMP280;62384;53.600;10.040;2023-04-01T04:15:15;52393.88;;;10.66
74043;BMP280;62384;53.600;10.040;2023-04-01T04:17:40;52383.69;;;10.70
74043;BMP280;62384;53.600;10.040;2023-04-01T04:20:07;52470.81;;;10.73
74043;BMP280;62384;53.600;10.040;2023-04-01T04:22:33;52421.41;;;10.67
74043;BMP280;62384;53.600;10.040;2023-04-01T04:24:58;52540.97;;;10.75
74043;BMP280;62384;53.600;10.040;2023-04-01T04:27:23;52567.00;;;10.71
74043;BMP280;62384;53.600;10.040;2023-04-01T04:29:49;52553.03;;;10.70
74043;BMP280;62384;53.600;10.040;2023-04-01T04:32:14;52484.03;;;10.66
74043;BMP280;62384;53.600;10.040;2023-04-01T04:34:40;52514.59;;;10.65
74043;BMP280;62384;53.600;10.040;2023-04-01T04:37:05;52514.19;;;10.68
74043;BMP280;62384;53.600;10.040;2023-04-01T04:39:30;52465.53;;;10.66
74043;BMP280;62384;53.600;10.040;2023-04-01T04:41:55;52535.69;;;10.65
74043;BMP280;62384;53.600;10.040;2023-04-01T04:44:21;52442.56;;;10.60
74043;BMP280;62384;53.600;10.040;2023-04-01T04:46:46;52380.34;;;10.58
74043;BMP280;62384;53.600;10.040;2023-04-01T04:49:12;52421.44;;;10.60
74043;BMP280;62384;53.600;10.040;2023-04-01T04:51:37;52439.16;;;10.59
74043;BMP280;62384;53.600;10.040;2023-04-01T04:54:03;52453.09;;;10.64
74043;BMP280;62384;53.600;10.040;2023-04-01T04:56:29;52380.31;;;10.65
74043;BMP280;62384;53.600;10.040;2023-04-01T04:58:55;52383.38;;;10.59
74043;BMP280;62384;53.600;10.040;2023-04-01T05:01:21;52357.34;;;10.59
74043;BMP280;62384;53.600;10.040;2023-04-01T05:03:46;52389.00;;;10.63
74043;BMP280;62384;53.600;10.040;2023-04-01T05:06:14;52487.41;;;10.67
74043;BMP280;62384;53.600;10.040;2023-04-01T05:08:40;52407.47;;;10.63
74043;BMP280;62384;53.600;10.040;2023-04-01T05:11:09;52346.78;;;10.56
74043;BMP280;62384;53.600;10.040;2023-04-01T05:13:35;52376.19;;;10.56
74043;BMP280;62384;53.600;10.040;2023-04-01T05:16:01;52419.56;;;10.54
74043;BMP280;62384;53.600;10.040;2023-04-01T05:18:26;52403.41;;;10.40
74043;BMP280;62384;53.600;10.040;2023-04-01T05:20:53;52827.50;;;10.21
74043;BMP280;62384;53.600;10.040;2023-04-01T05:23:20;53540.72;;;9.94
74043;BMP280;62384;53.600;10.040;2023-04-01T05:25:49;53453.88;;;9.84
74043;BMP280;62384;53.600;10.040;2023-04-01T05:28:16;53108.75;;;9.81
74043;BMP280;62384;53.600;10.040;2023-04-01T05:30:43;53121.47;;;9.74
74043;BMP280;62384;53.600;10.040;2023-04-01T05:33:10;53485.53;;;9.60
74043;BMP280;62384;53.600;10.040;2023-04-01T05:35:35;53380.47;;;9.61
74043;BMP280;62384;53.600;10.040;2023-04-01T05:38:01;53152.16;;;9.52
74043;BMP280;62384;53.600;10.040;2023-04-01T05:40:27;53226.91;;;9.35
74043;BMP280;62384;53.600;10.040;2023-04-01T05:42:53;53098.38;;;9.19
74043;BMP280;62384;53.600;10.040;2023-04-01T05:45:19;53042.63;;;9.15
74043;BMP280;62384;53.600;10.040;2023-04-01T05:47:44;52766.00;;;9.01
74043;BMP280;62384;53.600;10.040;2023-04-01T05:50:10;52745.25;;;8.87
74043;BMP280;62384;53.600;10.040;2023-04-01T05:52:36;52603.50;;;9.05
74043;BMP280;62384;53.600;10.040;2023-04-01T05:55:01;52664.47;;;9.09
74043;BMP280;62384;53.600;10.040;2023-04-01T05:57:27;53492.31;;;8.90
74043;BMP280;62384;53.600;10.040;2023-04-01T05:59:52;53501.63;;;8.85
74043;BMP280;62384;53.600;10.040;2023-04-01T06:02:18;53549.81;;;8.86
74043;BMP280;62384;53.600;10.040;2023-04-01T06:04:43;53316.50;;;8.80
74043;BMP280;62384;53.600;10.040;2023-04-01T06:07:17;53707.97;;;8.76
74043;BMP280;62384;53.600;10.040;2023-04-01T06:09:44;53655.09;;;8.65
74043;BMP280;62384;53.600;10.040;2023-04-01T06:23:07;53404.19;;;8.36
74043;BMP280;62384;53.600;10.040;2023-04-01T06:25:48;53246.66;;;8.33
74043;BMP280;62384;53.600;10.040;2023-04-01T06:31:22;53270.25;;;8.30
74043;BMP280;62384;53.600;10.040;2023-04-01T06:37:07;53476.69;;;8.14
74043;BMP280;62384;53.600;10.040;2023-04-01T06:40:05;53140.81;;;8.15
74043;BMP280;62384;53.600;10.040;2023-04-01T06:48:10;53338.63;;;8.26
74043;BMP280;62384;53.600;10.040;2023-04-01T06:50:52;54108.13;;;8.18
74043;BMP280;62384;53.600;10.040;2023-04-01T06:56:04;53711.81;;;8.26
74043;BMP280;62384;53.600;10.040;2023-04-01T06:58:42;53975.31;;;8.26
74043;BMP280;62384;53.600;10.040;2023-04-01T07:01:14;54088.06;;;8.26
74043;BMP280;62384;53.600;10.040;2023-04-01T07:06:48;53893.34;;;8.26
74043;BMP280;62384;53.600;10.040;2023-04-01T07:09:19;54378.97;;;8.24
74043;BMP280;62384;53.600;10.040;2023-04-01T07:11:46;54520.53;;;8.30
74043;BMP280;62384;53.600;10.040;2023-04-01T07:16:54;55115.66;;;8.27
74043;BMP280;62384;53.600;10.040;2023-04-01T07:21:56;55425.22;;;8.06
74043;BMP280;62384;53.600;10.040;2023-04-01T07:24:32;55128.66;;;8.07
74043;BMP280;62384;53.600;10.040;2023-04-01T07:27:00;55087.25;;;7.98
74043;BMP280;62384;53.600;10.040;2023-04-01T07:29:26;55384.59;;;7.98
74043;BMP280;62384;53.600;10.040;2023-04-01T07:35:12;55473.72;;;7.91
74043;BMP280;62384;53.600;10.040;2023-04-01T07:51:38;56555.56;;;7.78
74043;BMP280;62384;53.600;10.040;2023-04-01T07:57:20;55456.44;;;7.99
74043;BMP280;62384;53.600;10.040;2023-04-01T08:00:02;55323.91;;;8.18
74043;BMP280;62384;53.600;10.040;2023-04-01T08:10:43;57140.25;;;7.88
74043;BMP280;62384;53.600;10.040;2023-04-01T08:13:33;56773.88;;;7.97
74043;BMP280;62384;53.600;10.040;2023-04-01T08:16:06;56549.47;;;7.93
74043;BMP280;62384;53.600;10.040;2023-04-01T08:21:24;56415.97;;;7.88
74043;BMP280;62384;53.600;10.040;2023-04-01T08:23:56;55968.59;;;7.88
74043;BMP280;62384;53.600;10.040;2023-04-01T08:29:13;57009.59;;;7.86
74043;BMP280;62384;53.600;10.040;2023-04-01T08:32:11;56175.06;;;7.89
74043;BMP280;62384;53.600;10.040;2023-04-01T08:34:40;55761.09;;;8.01
74043;BMP280;62384;53.600;10.040;2023-04-01T08:37:11;55709.69;;;7.96
74043;BMP280;62384;53.600;10.040;2023-04-01T08:39:40;55541.34;;;8.20
74043;BMP280;62384;53.600;10.040;2023-04-01T09:04:25;58226.09;;;7.99
74043;BMP280;62384;53.600;10.040;2023-04-01T09:07:02;58186.59;;;7.83
74043;BMP280;62384;53.600;10.040;2023-04-01T09:15:32;57293.66;;;8.02
74043;BMP280;62384;53.600;10.040;2023-04-01T09:18:32;57880.31;;;8.20
74043;BMP280;62384;53.600;10.040;2023-04-01T09:21:31;57898.25;;;8.23
74043;BMP280;62384;53.600;10.040;2023-04-01T09:29:36;58979.81;;;8.08
74043;BMP280;62384;53.600;10.040;2023-04-01T09:34:54;58839.00;;;8.23
74043;BMP280;62384;53.600;10.040;2023-04-01T09:37:34;58867.75;;;8.35
74043;BMP280;62384;53.600;10.040;2023-04-01T09:50:43;60245.03;;;8.27
74043;BMP280;62384;53.600;10.040;2023-04-01T09:53:25;59003.28;;;8.24
74043;BMP280;62384;53.600;10.040;2023-04-01T10:01:48;59235.09;;;8.36
74043;BMP280;62384;53.600;10.040;2023-04-01T10:07:20;60188.84;;;8.62
74043;BMP280;62384;53.600;10.040;2023-04-01T10:13:39;60376.31;;;8.92
74043;BMP280;62384;53.600;10.040;2023-04-01T10:36:54;61350.00;;;9.03
74043;BMP280;62384;53.600;10.040;2023-04-01T10:42:17;62040.75;;;9.02
74043;BMP280;62384;53.600;10.040;2023-04-01T11:01:03;61641.19;;;8.74
74043;BMP280;62384;53.600;10.040;2023-04-01T11:12:35;61857.28;;;8.45
74043;BMP280;62384;53.600;10.040;2023-04-01T11:15:30;60907.34;;;8.51
74043;BMP280;62384;53.600;10.040;2023-04-01T11:23:37;59890.75;;;8.47
74043;BMP280;62384;53.600;10.040;2023-04-01T11:26:30;59691.50;;;8.66
74043;BMP280;62384;53.600;10.040;2023-04-01T11:32:07;60564.47;;;8.66
74043;BMP280;62384;53.600;10.040;2023-04-01T11:34:56;59769.84;;;8.50
74043;BMP280;62384;53.600;10.040;2023-04-01T11:40:37;61062.38;;;8.65
74043;BMP280;62384;53.600;10.040;2023-04-01T11:43:18;61457.69;;;8.55
74043;BMP280;62384;53.600;10.040;2023-04-01T11:45:58;61806.34;;;8.47
74043;BMP280;62384;53.600;10.040;2023-04-01T11:51:29;61741.22;;;8.48
74043;BMP280;62384;53.600;10.040;2023-04-01T11:57:18;61570.38;;;8.22
74043;BMP280;62384;53.600;10.040;2023-04-01T12:04:58;61710.56;;;8.20
74043;BMP280;62384;53.600;10.040;2023-04-01T12:07:40;62653.03;;;8.00
74043;BMP280;62384;53.600;10.040;2023-04-01T12:10:20;61704.69;;;7.81
74043;BMP280;62384;53.600;10.040;2023-04-01T12:18:38;60853.16;;;7.78
74043;BMP280;62384;53.600;10.040;2023-04-01T12:21:36;61788.88;;;7.75
74043;BMP280;62384;53.600;10.040;2023-04-01T12:24:10;61765.94;;;7.87
74043;BMP280;62384;53.600;10.040;2023-04-01T12:26:59;62472.69;;;7.87
74043;BMP280;62384;53.600;10.040;2023-04-01T12:32:37;62279.47;;;8.04
74043;BMP280;62384;53.600;10.040;2023-04-01T12:35:26;62390.38;;;8.07
74043;BMP280;62384;53.600;10.040;2023-04-01T12:41:51;62978.78;;;7.98
74043;BMP280;62384;53.600;10.040;2023-04-01T12:49:31;62970.50;;;7.72
74043;BMP280;62384;53.600;10.040;2023-04-01T12:58:35;62588.50;;;7.81
74043;BMP280;62384;53.600;10.040;2023-04-01T13:17:07;63055.53;;;7.67
74043;BMP280;62384;53.600;10.040;2023-04-01T13:19:58;63598.50;;;7.61
74043;BMP280;62384;53.600;10.040;2023-04-01T13:22:41;62673.41;;;7.53
74043;BMP280;62384;53.600;10.040;2023-04-01T13:31:02;64314.06;;;7.59
74043;BMP280;62384;53.600;10.040;2023-04-01T13:39:05;64289.19;;;7.50
74043;BMP280;62384;53.600;10.040;2023-04-01T13:41:54;63894.25;;;7.53
74043;BMP280;62384;53.600;10.040;2023-04-01T13:44:32;63504.19;;;7.65
74043;BMP280;62384;53.600;10.040;2023-04-01T13:50:42;63853.16;;;7.43
74043;BMP280;62384;53.600;10.040;2023-04-01T14:10:57;65941.69;;;7.59
74043;BMP280;62384;53.600;10.040;2023-04-01T14:13:43;65846.00;;;7.47
74043;BMP280;62384;53.600;10.040;2023-04-01T14:19:27;64929.03;;;7.68
74043;BMP280;62384;53.600;10.040;2023-04-01T14:22:05;65153.44;;;7.37
74043;BMP280;62384;53.600;10.040;2023-04-01T14:39:06;65976.97;;;7.46
74043;BMP280;62384;53.600;10.040;2023-04-01T14:41:38;65890.06;;;7.30
74043;BMP280;62384;53.600;10.040;2023-04-01T14:49:43;65538.72;;;7.29
74043;BMP280;62384;53.600;10.040;2023-04-01T14:52:24;64877.38;;;7.22
74043;BMP280;62384;53.600;10.040;2023-04-01T14:54:52;63406.53;;;7.25
74043;BMP280;62384;53.600;10.040;2023-04-01T14:57:27;63705.41;;;7.06
74043;BMP280;62384;53.600;10.040;2023-04-01T15:00:16;62481.09;;;7.24
74043;BMP280;62384;53.600;10.040;2023-04-01T15:05:27;63409.41;;;7.36
74043;BMP280;62384;53.600;10.040;2023-04-01T15:11:03;63618.81;;;7.26
74043;BMP280;62384;53.600;10.040;2023-04-01T15:18:54;62186.69;;;7.08
74043;BMP280;62384;53.600;10.040;2023-04-01T15:52:44;61882.06;;;6.68
74043;BMP280;62384;53.600;10.040;2023-04-01T15:56:07;62033.13;;;6.72
74043;BMP280;62384;53.600;10.040;2023-04-01T16:01:27;61695.41;;;6.74
74043;BMP280;62384;53.600;10.040;2023-04-01T16:04:38;61579.69;;;6.62
74043;BMP280;62384;53.600;10.040;2023-04-01T16:07:48;62082.78;;;6.40
74043;BMP280;62384;53.600;10.040;2023-04-01T16:10:20;61445.38;;;6.42
74043;BMP280;62384;53.600;10.040;2023-04-01T16:15:57;62192.03;;;6.41
74043;BMP280;62384;53.600;10.040;2023-04-01T16:18:46;62011.63;;;6.48
74043;BMP280;62384;53.600;10.040;2023-04-01T16:22:22;62993.53;;;6.46
74043;BMP280;62384;53.600;10.040;2023-04-01T16:29:38;62097.31;;;6.41
74043;BMP280;62384;53.600;10.040;2023-04-01T16:32:22;61836.56;;;6.32
74043;BMP280;62384;53.600;10.040;2023-04-01T16:34:57;61738.78;;;6.32
74043;BMP280;62384;53.600;10.040;2023-04-01T16:37:40;61125.94;;;6.29
74043;BMP280;62384;53.600;10.040;2023-04-01T16:43:19;61342.94;;;6.12
74043;BMP280;62384;53.600;10.040;2023-04-01T17:02:25;62011.78;;;6.05
74043;BMP280;62384;53.600;10.040;2023-04-01T17:05:03;62040.69;;;6.16
74043;BMP280;62384;53.600;10.040;2023-04-01T17:19:54;64338.28;;;5.87
74043;BMP280;62384;53.600;10.040;2023-04-01T17:25:17;65501.00;;;5.84
74043;BMP280;62384;53.600;10.040;2023-04-01T17:30:41;65474.66;;;5.97
74043;BMP280;62384;53.600;10.040;2023-04-01T17:33:30;65174.94;;;6.06
74043;BMP280;62384;53.600;10.040;2023-04-01T17:42:07;65693.91;;;6.01
74043;BMP280;62384;53.600;10.040;2023-04-01T17:50:24;65921.78;;;6.02
74043;BMP280;62384;53.600;10.040;2023-04-01T17:59:34;66043.13;;;5.92
74043;BMP280;62384;53.600;10.040;2023-04-01T18:01:44;66252.56;;;5.93
74043;BMP280;62384;53.600;10.040;2023-04-01T18:23:54;67073.84;;;5.69
74043;BMP280;62384;53.600;10.040;2023-04-01T18:26:35;67058.81;;;5.65
74043;BMP280;62384;53.600;10.040;2023-04-01T18:37:25;67949.94;;;5.45
74043;BMP280;62384;53.600;10.040;2023-04-01T18:40:37;67909.00;;;5.41
74043;BMP280;62384;53.600;10.040;2023-04-01T18:43:36;67540.56;;;5.41
74043;BMP280;62384;53.600;10.040;2023-04-01T18:46:33;68096.34;;;5.28
74043;BMP280;62384;53.600;10.040;2023-04-01T18:51:51;67802.63;;;5.29
74043;BMP280;62384;53.600;10.040;2023-04-01T18:57:26;67873.47;;;5.21
74043;BMP280;62384;53.600;10.040;2023-04-01T19:00:03;67641.22;;;5.26
74043;BMP280;62384;53.600;10.040;2023-04-01T19:02:48;67885.41;;;5.25
74043;BMP280;62384;53.600;10.040;2023-04-01T19:05:24;67767.81;;;5.31
74043;BMP280;62384;53.600;10.040;2023-04-01T19:07:53;67315.50;;;5.37
74043;BMP280;62384;53.600;10.040;2023-04-01T19:13:24;67855.16;;;5.45
74043;BMP280;62384;53.600;10.040;2023-04-01T19:16:37;68712.94;;;5.42
74043;BMP280;62384;53.600;10.040;2023-04-01T19:19:51;69121.78;;;5.32
74043;BMP280;62384;53.600;10.040;2023-04-01T19:25:20;69273.88;;;5.37
74043;BMP280;62384;53.600;10.040;2023-04-01T19:27:51;69360.22;;;5.39
74043;BMP280;62384;53.600;10.040;2023-04-01T19:30:33;69712.03;;;5.38
74043;BMP280;62384;53.600;10.040;2023-04-01T19:38:31;69647.91;;;5.24
74043;BMP280;62384;53.600;10.040;2023-04-01T19:41:32;69378.31;;;5.26
74043;BMP280;62384;53.600;10.040;2023-04-01T19:52:53;70532.41;;;4.61
74043;BMP280;62384;53.600;10.040;2023-04-01T19:58:23;70153.56;;;4.56
74043;BMP280;62384;53.600;10.040;2023-04-01T20:00:57;69983.63;;;4.55
74043;BMP280;62384;53.600;10.040;2023-04-01T20:06:14;70097.28;;;4.45
74043;BMP280;62384;53.600;10.040;2023-04-01T20:14:36;69985.28;;;4.33
74043;BMP280;62384;53.600;10.040;2023-04-01T20:17:34;69831.22;;;4.29
74043;BMP280;62384;53.600;10.040;2023-04-01T20:25:18;69801.25;;;4.31
74043;BMP280;62384;53.600;10.040;2023-04-01T20:27:48;69775.44;;;4.36
74043;BMP280;62384;53.600;10.040;2023-04-01T20:30:32;69519.41;;;4.33
74043;BMP280;62384;53.600;10.040;2023-04-01T20:35:57;69362.13;;;4.38
74043;BMP280;62384;53.600;10.040;2023-04-01T20:38:58;69291.22;;;4.33
74043;BMP280;62384;53.600;10.040;2023-04-01T20:52:17;70206.09;;;4.01
74043;BMP280;62384;53.600;10.040;2023-04-01T20:57:54;70755.22;;;3.83
74043;BMP280;62384;53.600;10.040;2023-04-01T21:03:29;70398.31;;;3.76
74043;BMP280;62384;53.600;10.040;2023-04-01T21:09:23;70482.34;;;3.68
74043;BMP280;62384;53.600;10.040;2023-04-01T21:14:54;70084.09;;;3.62
74043;BMP280;62384;53.600;10.040;2023-04-01T21:20:10;70071.47;;;3.55
74043;BMP280;62384;53.600;10.040;2023-04-01T21:28:12;69709.66;;;3.50
74043;BMP280;62384;53.600;10.040;2023-04-01T21:31:02;69622.50;;;3.50
74043;BMP280;62384;53.600;10.040;2023-04-01T21:33:43;69568.97;;;3.44
74043;BMP280;62384;53.600;10.040;2023-04-01T21:36:24;69065.53;;;3.42
74043;BMP280;62384;53.600;10.040;2023-04-01T21:41:47;68561.16;;;3.41
74043;BMP280;62384;53.600;10.040;2023-04-01T21:53:41;67808.44;;;3.18
74043;BMP280;62384;53.600;10.040;2023-04-01T21:56:44;67993.53;;;3.19
74043;BMP280;62384;53.600;10.040;2023-04-01T22:02:30;68107.41;;;3.18
74043;BMP280;62384;53.600;10.040;2023-04-01T22:05:34;68178.56;;;3.23
74043;BMP280;62384;53.600;10.040;2023-04-01T22:11:01;68894.44;;;3.10
74043;BMP280;62384;53.600;10.040;2023-04-01T22:16:25;69087.03;;;3.06
74043;BMP280;62384;53.600;10.040;2023-04-01T22:19:20;69179.41;;;3.02
74043;BMP280;62384;53.600;10.040;2023-04-01T22:22:15;68883.50;;;3.05
74043;BMP280;62384;53.600;10.040;2023-04-01T22:30:29;69078.16;;;3.03
74043;BMP280;62384;53.600;10.040;2023-04-01T22:35:39;69188.84;;;3.03
74043;BMP280;62384;53.600;10.040;2023-04-01T22:40:44;69254.44;;;2.98
74043;BMP280;62384;53.600;10.040;2023-04-01T22:43:15;69077.72;;;2.95
74043;BMP280;62384;53.600;10.040;2023-04-01T22:48:20;69013.22;;;2.93
74043;BMP280;62384;53.600;10.040;2023-04-01T22:56:32;68999.66;;;2.90
74043;BMP280;62384;53.600;10.040;2023-04-01T22:59:11;68949.28;;;2.92
74043;BMP280;62384;53.600;10.040;2023-04-01T23:01:46;68855.94;;;2.91
74043;BMP280;62384;53.600;10.040;2023-04-01T23:04:12;68995.06;;;2.81
74043;BMP280;62384;53.600;10.040;2023-04-01T23:06:46;68892.84;;;2.78
74043;BMP280;62384;53.600;10.040;2023-04-01T23:09:17;68964.13;;;2.79
74043;BMP280;62384;53.600;10.040;2023-04-01T23:11:53;68998.75;;;2.79
74043;BMP280;62384;53.600;10.040;2023-04-01T23:16:57;68828.88;;;2.77
74043;BMP280;62384;53.600;10.040;2023-04-01T23:19:52;68749.81;;;2.72
74043;BMP280;62384;53.600;10.040;2023-04-01T23:22:53;68595.66;;;2.72
74043;BMP280;62384;53.600;10.040;2023-04-01T23:38:15;69476.59;;;2.62
74043;BMP280;62384;53.600;10.040;2023-04-01T23:40:42;69727.22;;;2.63
74043;BMP280;62384;53.600;10.040;2023-04-01T23:43:28;69614.50;;;2.61
74043;BMP280;62384;53.600;10.040;2023-04-01T23:45:57;69481.31;;;2.61
74043;BMP280;62384;53.600;10.040;2023-04-01T23:48:29;69839.41;;;2.63
74043;BMP280;62384;53.600;10.040;2023-04-01T23:50:56;70027.69;;;2.62
74043;BMP280;62384;53.600;10.040;2023-04-01T23:53:28;69971.03;;;2.53
74043;BMP280;62384;53.600;10.040;2023-04-01T23:55:56;70015.63;;;2.66
74043;BMP280;62384;53.600;10.040;2023-04-01T23:58:24;70318.78;;;2.67
